sensor_id;sensor_type;location;lat;lon;timestamp;temperature;humidity
7576;DHT22;3829;50.798;4.358;2022-07-04T00:00:11;14.80;99.90
7576;DHT22;3829;50.798;4.358;2022-07-04T00:02:38;14.70;99.90
7576;DHT22;3829;50.798;4.358;2022-07-04T00:05:04;14.70;99.90
7576;DHT22;3829;50.798;4.358;2022-07-04T00:07:34;14.60;99.90
7576;DHT22;3829;50.798;4.358;2022-07-04T00:10:00;14.60;99.90
7576;DHT22;3829;50.798;4.358;2022-07-04T00:12:25;14.60;99.90
7576;DHT22;3829;50.798;4.358;2022-07-04T00:14:52;14.80;99.90
7576;DHT22;3829;50.798;4.358;2022-07-04T00:17:17;14.60;99.90
7576;DHT22;3829;50.798;4.358;2022-07-04T00:19:43;14.50;99.90
7576;DHT22;3829;50.798;4.358;2022-07-04T00:22:08;14.50;99.90
7576;DHT22;3829;50.798;4.358;2022-07-04T00:24:34;14.50;99.90
7576;DHT22;3829;50.798;4.358;2022-07-04T00:27:00;14.50;99.90
7576;DHT22;3829;50.798;4.358;2022-07-04T00:29:25;14.50;99.90
7576;DHT22;3829;50.798;4.358;2022-07-04T00:31:51;14.40;99.90
7576;DHT22;3829;50.798;4.358;2022-07-04T00:34:17;14.30;99.90
7576;DHT22;3829;50.798;4.358;2022-07-04T00:36:42;14.30;99.90
7576;DHT22;3829;50.798;4.358;2022-07-04T00:39:08;14.30;99.90
7576;DHT22;3829;50.798;4.358;2022-07-04T00:41:34;14.50;99.90
7576;DHT22;3829;50.798;4.358;2022-07-04T00:44:01;14.40;99.90
7576;DHT22;3829;50.798;4.358;2022-07-04T00:46:27;14.30;99.90
7576;DHT22;3829;50.798;4.358;2022-07-04T00:48:52;14.40;99.90
7576;DHT22;3829;50.798;4.358;2022-07-04T00:51:18;14.40;99.90
7576;DHT22;3829;50.798;4.358;2022-07-04T00:53:45;14.50;99.90
7576;DHT22;3829;50.798;4.358;2022-07-04T00:56:10;14.40;99.90
7576;DHT22;3829;50.798;4.358;2022-07-04T00:58:37;14.20;99.90
7576;DHT22;3829;50.798;4.358;2022-07-04T01:01:03;14.20;99.90
7576;DHT22;3829;50.798;4.358;2022-07-04T01:03:29;14.10;99.90
7576;DHT22;3829;50.798;4.358;2022-07-04T01:05:56;14.10;99.90
7576;DHT22;3829;50.798;4.358;2022-07-04T01:08:24;14.20;99.90
7576;DHT22;3829;50.798;4.358;2022-07-04T01:10:49;14.30;99.90
7576;DHT22;3829;50.798;4.358;2022-07-04T01:13:19;14.40;99.90
7576;DHT22;3829;50.798;4.358;2022-07-04T01:15:46;14.30;99.90
7576;DHT22;3829;50.798;4.358;2022-07-04T01:18:12;14.40;99.90
7576;DHT22;3829;50.798;4.358;2022-07-04T01:20:37;14.30;99.90
7576;DHT22;3829;50.798;4.358;2022-07-04T01:23:03;14.10;99.90
7576;DHT22;3829;50.798;4.358;2022-07-04T01:25:29;14.30;99.90
7576;DHT22;3829;50.798;4.358;2022-07-04T01:27:55;14.10;99.90
7576;DHT22;3829;50.798;4.358;2022-07-04T01:30:21;14.10;99.90
7576;DHT22;3829;50.798;4.358;2022-07-04T01:32:46;14.00;99.90
7576;DHT22;3829;50.798;4.358;2022-07-04T01:35:12;13.90;99.90
7576;DHT22;3829;50.798;4.358;2022-07-04T01:37:38;13.90;99.90
7576;DHT22;3829;50.798;4.358;2022-07-04T01:40:04;13.90;99.90
7576;DHT22;3829;50.798;4.358;2022-07-04T01:42:30;13.80;99.90
7576;DHT22;3829;50.798;4.358;2022-07-04T01:44:55;13.60;99.90
7576;DHT22;3829;50.798;4.358;2022-07-04T01:47:21;13.70;99.90
7576;DHT22;3829;50.798;4.358;2022-07-04T01:49:47;13.80;99.90
7576;DHT22;3829;50.798;4.358;2022-07-04T01:52:12;13.90;99.90
7576;DHT22;3829;50.798;4.358;2022-07-04T01:54:38;14.00;99.90
7576;DHT22;3829;50.798;4.358;2022-07-04T01:57:04;14.10;99.90
7576;DHT22;3829;50.798;4.358;2022-07-04T01:59:31;14.00;99.90
7576;DHT22;3829;50.798;4.358;2022-07-04T02:02:29;14.00;99.90
7576;DHT22;3829;50.798;4.358;2022-07-04T02:04:54;14.10;99.90
7576;DHT22;3829;50.798;4.358;2022-07-04T02:07:20;14.10;99.90
7576;DHT22;3829;50.798;4.358;2022-07-04T02:09:47;14.10;99.90
7576;DHT22;3829;50.798;4.358;2022-07-04T02:12:13;14.00;99.90
7576;DHT22;3829;50.798;4.358;2022-07-04T02:14:57;14.00;99.90
7576;DHT22;3829;50.798;4.358;2022-07-04T02:17:23;14.00;99.90
7576;DHT22;3829;50.798;4.358;2022-07-04T02:19:48;14.00;99.90
7576;DHT22;3829;50.798;4.358;2022-07-04T02:22:14;13.90;99.90
7576;DHT22;3829;50.798;4.358;2022-07-04T02:24:41;13.90;99.90
7576;DHT22;3829;50.798;4.358;2022-07-04T02:27:07;13.90;99.90
7576;DHT22;3829;50.798;4.358;2022-07-04T02:29:33;13.80;99.90
7576;DHT22;3829;50.798;4.358;2022-07-04T02:31:59;13.80;99.90
7576;DHT22;3829;50.798;4.358;2022-07-04T02:34:25;13.90;99.90
7576;DHT22;3829;50.798;4.358;2022-07-04T02:36:51;13.90;99.90
7576;DHT22;3829;50.798;4.358;2022-07-04T02:39:17;13.80;99.90
7576;DHT22;3829;50.798;4.358;2022-07-04T02:41:42;14.00;99.90
7576;DHT22;3829;50.798;4.358;2022-07-04T02:44:08;13.80;99.90
7576;DHT22;3829;50.798;4.358;2022-07-04T02:46:35;13.80;99.90
7576;DHT22;3829;50.798;4.358;2022-07-04T02:49:01;13.90;99.90
7576;DHT22;3829;50.798;4.358;2022-07-04T02:51:27;13.90;99.90
7576;DHT22;3829;50.798;4.358;2022-07-04T02:53:53;13.90;99.90
7576;DHT22;3829;50.798;4.358;2022-07-04T02:56:18;13.70;99.90
7576;DHT22;3829;50.798;4.358;2022-07-04T02:58:44;13.80;99.90
7576;DHT22;3829;50.798;4.358;2022-07-04T03:01:10;13.80;99.90
7576;DHT22;3829;50.798;4.358;2022-07-04T03:03:38;13.80;99.90
7576;DHT22;3829;50.798;4.358;2022-07-04T03:06:04;13.70;99.90
7576;DHT22;3829;50.798;4.358;2022-07-04T03:08:30;13.60;99.90
7576;DHT22;3829;50.798;4.358;2022-07-04T03:10:55;13.50;99.90
7576;DHT22;3829;50.798;4.358;2022-07-04T03:13:21;13.60;99.90
7576;DHT22;3829;50.798;4.358;2022-07-04T03:15:46;13.60;99.90
7576;DHT22;3829;50.798;4.358;2022-07-04T03:18:12;13.40;99.90
7576;DHT22;3829;50.798;4.358;2022-07-04T03:20:38;13.60;99.90
7576;DHT22;3829;50.798;4.358;2022-07-04T03:23:03;13.50;99.90
7576;DHT22;3829;50.798;4.358;2022-07-04T03:25:29;13.50;99.90
7576;DHT22;3829;50.798;4.358;2022-07-04T03:27:54;13.50;99.90
7576;DHT22;3829;50.798;4.358;2022-07-04T03:30:20;13.60;99.90
7576;DHT22;3829;50.798;4.358;2022-07-04T03:32:46;13.60;99.90
7576;DHT22;3829;50.798;4.358;2022-07-04T03:35:11;13.60;99.90
7576;DHT22;3829;50.798;4.358;2022-07-04T03:37:37;13.60;99.90
7576;DHT22;3829;50.798;4.358;2022-07-04T03:40:02;13.60;99.90
7576;DHT22;3829;50.798;4.358;2022-07-04T03:42:28;13.50;99.90
7576;DHT22;3829;50.798;4.358;2022-07-04T03:44:54;13.50;99.90
7576;DHT22;3829;50.798;4.358;2022-07-04T03:47:20;13.40;99.90
7576;DHT22;3829;50.798;4.358;2022-07-04T03:49:45;13.30;99.90
7576;DHT22;3829;50.798;4.358;2022-07-04T03:52:11;13.30;99.90
7576;DHT22;3829;50.798;4.358;2022-07-04T03:54:37;13.30;99.90
7576;DHT22;3829;50.798;4.358;2022-07-04T03:57:02;13.20;99.90
7576;DHT22;3829;50.798;4.358;2022-07-04T03:59:28;13.30;99.90
7576;DHT22;3829;50.798;4.358;2022-07-04T04:01:54;13.30;99.90
7576;DHT22;3829;50.798;4.358;2022-07-04T04:04:19;13.40;99.90
7576;DHT22;3829;50.798;4.358;2022-07-04T04:07:04;13.50;99.90
7576;DHT22;3829;50.798;4.358;2022-07-04T04:09:29;13.50;99.90
7576;DHT22;3829;50.798;4.358;2022-07-04T04:11:55;13.60;99.90
7576;DHT22;3829;50.798;4.358;2022-07-04T04:14:21;13.60;99.90
7576;DHT22;3829;50.798;4.358;2022-07-04T04:16:46;13.70;99.90
7576;DHT22;3829;50.798;4.358;2022-07-04T04:19:12;13.80;99.90
7576;DHT22;3829;50.798;4.358;2022-07-04T04:21:38;13.70;99.90
7576;DHT22;3829;50.798;4.358;2022-07-04T04:24:04;13.60;99.90
7576;DHT22;3829;50.798;4.358;2022-07-04T04:26:29;13.60;99.90
7576;DHT22;3829;50.798;4.358;2022-07-04T04:28:55;13.60;99.90
7576;DHT22;3829;50.798;4.358;2022-07-04T04:31:21;13.60;99.90
7576;DHT22;3829;50.798;4.358;2022-07-04T04:33:47;13.60;99.90
7576;DHT22;3829;50.798;4.358;2022-07-04T04:36:13;13.80;99.90
7576;DHT22;3829;50.798;4.358;2022-07-04T04:38:38;13.80;99.90
7576;DHT22;3829;50.798;4.358;2022-07-04T04:41:04;13.80;99.90
7576;DHT22;3829;50.798;4.358;2022-07-04T04:43:30;14.00;99.90
7576;DHT22;3829;50.798;4.358;2022-07-04T04:45:55;14.10;99.90
7576;DHT22;3829;50.798;4.358;2022-07-04T04:48:21;14.10;99.90
7576;DHT22;3829;50.798;4.358;2022-07-04T04:50:47;14.10;99.90
7576;DHT22;3829;50.798;4.358;2022-07-04T04:53:12;14.00;99.90
7576;DHT22;3829;50.798;4.358;2022-07-04T04:55:39;14.10;99.90
7576;DHT22;3829;50.798;4.358;2022-07-04T04:58:04;14.10;99.90
7576;DHT22;3829;50.798;4.358;2022-07-04T05:00:30;14.20;99.90
7576;DHT22;3829;50.798;4.358;2022-07-04T05:02:56;14.40;99.90
7576;DHT22;3829;50.798;4.358;2022-07-04T05:05:21;14.40;99.90
7576;DHT22;3829;50.798;4.358;2022-07-04T05:07:47;14.50;99.90
7576;DHT22;3829;50.798;4.358;2022-07-04T05:10:13;14.60;99.90
7576;DHT22;3829;50.798;4.358;2022-07-04T05:12:42;14.70;99.90
7576;DHT22;3829;50.798;4.358;2022-07-04T05:15:08;14.80;99.90
7576;DHT22;3829;50.798;4.358;2022-07-04T05:17:34;14.80;99.90
7576;DHT22;3829;50.798;4.358;2022-07-04T05:20:00;14.90;99.90
7576;DHT22;3829;50.798;4.358;2022-07-04T05:22:26;14.90;99.90
7576;DHT22;3829;50.798;4.358;2022-07-04T05:24:52;15.00;99.90
7576;DHT22;3829;50.798;4.358;2022-07-04T05:27:17;15.10;99.90
7576;DHT22;3829;50.798;4.358;2022-07-04T05:29:43;15.20;99.90
7576;DHT22;3829;50.798;4.358;2022-07-04T05:32:09;15.20;99.90
7576;DHT22;3829;50.798;4.358;2022-07-04T05:34:35;15.20;99.90
7576;DHT22;3829;50.798;4.358;2022-07-04T05:37:01;15.30;99.90
7576;DHT22;3829;50.798;4.358;2022-07-04T05:39:28;15.40;99.90
7576;DHT22;3829;50.798;4.358;2022-07-04T05:41:54;15.50;99.90
7576;DHT22;3829;50.798;4.358;2022-07-04T05:44:19;15.60;99.90
7576;DHT22;3829;50.798;4.358;2022-07-04T05:46:45;15.70;99.90
7576;DHT22;3829;50.798;4.358;2022-07-04T05:49:11;15.70;99.90
7576;DHT22;3829;50.798;4.358;2022-07-04T05:51:36;15.70;99.90
7576;DHT22;3829;50.798;4.358;2022-07-04T05:54:02;15.80;99.90
7576;DHT22;3829;50.798;4.358;2022-07-04T05:56:28;15.80;99.90
7576;DHT22;3829;50.798;4.358;2022-07-04T05:58:53;16.00;99.90
7576;DHT22;3829;50.798;4.358;2022-07-04T06:01:19;16.00;99.90
7576;DHT22;3829;50.798;4.358;2022-07-04T06:03:45;16.00;99.90
7576;DHT22;3829;50.798;4.358;2022-07-04T06:06:11;16.00;99.90
7576;DHT22;3829;50.798;4.358;2022-07-04T06:08:36;16.20;99.90
7576;DHT22;3829;50.798;4.358;2022-07-04T06:11:03;16.20;99.90
7576;DHT22;3829;50.798;4.358;2022-07-04T06:13:29;16.30;99.90
7576;DHT22;3829;50.798;4.358;2022-07-04T06:15:55;16.40;99.90
7576;DHT22;3829;50.798;4.358;2022-07-04T06:18:21;16.40;99.90
7576;DHT22;3829;50.798;4.358;2022-07-04T06:20:46;16.60;99.90
7576;DHT22;3829;50.798;4.358;2022-07-04T06:23:12;16.50;99.90
7576;DHT22;3829;50.798;4.358;2022-07-04T06:25:38;16.70;99.90
7576;DHT22;3829;50.798;4.358;2022-07-04T06:28:04;16.70;99.90
7576;DHT22;3829;50.798;4.358;2022-07-04T06:30:29;16.60;99.90
7576;DHT22;3829;50.798;4.358;2022-07-04T06:32:57;16.80;99.90
7576;DHT22;3829;50.798;4.358;2022-07-04T06:35:27;16.70;99.90
7576;DHT22;3829;50.798;4.358;2022-07-04T06:38:13;16.90;99.90
7576;DHT22;3829;50.798;4.358;2022-07-04T06:40:40;17.00;99.90
7576;DHT22;3829;50.798;4.358;2022-07-04T06:43:05;17.10;99.90
7576;DHT22;3829;50.798;4.358;2022-07-04T06:45:31;17.10;99.90
7576;DHT22;3829;50.798;4.358;2022-07-04T06:47:59;17.20;99.90
7576;DHT22;3829;50.798;4.358;2022-07-04T06:50:25;17.30;99.90
7576;DHT22;3829;50.798;4.358;2022-07-04T06:52:51;17.50;99.90
7576;DHT22;3829;50.798;4.358;2022-07-04T06:55:17;17.50;99.90
7576;DHT22;3829;50.798;4.358;2022-07-04T06:57:43;17.70;99.90
7576;DHT22;3829;50.798;4.358;2022-07-04T07:00:09;17.70;99.90
7576;DHT22;3829;50.798;4.358;2022-07-04T07:02:36;17.80;99.90
7576;DHT22;3829;50.798;4.358;2022-07-04T07:05:03;18.10;99.90
7576;DHT22;3829;50.798;4.358;2022-07-04T07:07:28;18.20;99.90
7576;DHT22;3829;50.798;4.358;2022-07-04T07:09:54;18.20;99.90
7576;DHT22;3829;50.798;4.358;2022-07-04T07:12:24;18.10;99.90
7576;DHT22;3829;50.798;4.358;2022-07-04T07:14:50;18.20;99.90
7576;DHT22;3829;50.798;4.358;2022-07-04T07:17:16;18.30;99.90
7576;DHT22;3829;50.798;4.358;2022-07-04T07:19:42;18.40;99.90
7576;DHT22;3829;50.798;4.358;2022-07-04T07:22:09;18.70;99.90
7576;DHT22;3829;50.798;4.358;2022-07-04T07:24:35;18.90;99.90
7576;DHT22;3829;50.798;4.358;2022-07-04T07:27:01;19.00;99.90
7576;DHT22;3829;50.798;4.358;2022-07-04T07:29:26;19.00;99.90
7576;DHT22;3829;50.798;4.358;2022-07-04T07:31:52;18.90;99.90
7576;DHT22;3829;50.798;4.358;2022-07-04T07:34:18;18.90;99.90
7576;DHT22;3829;50.798;4.358;2022-07-04T07:36:43;19.00;99.90
7576;DHT22;3829;50.798;4.358;2022-07-04T07:39:09;19.30;99.90
7576;DHT22;3829;50.798;4.358;2022-07-04T07:41:35;19.50;99.90
7576;DHT22;3829;50.798;4.358;2022-07-04T07:44:00;19.60;99.90
7576;DHT22;3829;50.798;4.358;2022-07-04T07:46:26;19.70;99.90
7576;DHT22;3829;50.798;4.358;2022-07-04T07:48:52;19.90;99.90
7576;DHT22;3829;50.798;4.358;2022-07-04T07:51:17;20.00;99.90
7576;DHT22;3829;50.798;4.358;2022-07-04T07:53:43;19.90;99.90
7576;DHT22;3829;50.798;4.358;2022-07-04T07:56:09;19.90;99.90
7576;DHT22;3829;50.798;4.358;2022-07-04T07:58:35;20.10;99.90
7576;DHT22;3829;50.798;4.358;2022-07-04T08:01:00;20.10;99.90
7576;DHT22;3829;50.798;4.358;2022-07-04T08:03:29;20.20;99.90
7576;DHT22;3829;50.798;4.358;2022-07-04T08:06:14;20.20;99.90
7576;DHT22;3829;50.798;4.358;2022-07-04T08:08:44;20.40;99.90
7576;DHT22;3829;50.798;4.358;2022-07-04T08:11:11;20.50;99.90
7576;DHT22;3829;50.798;4.358;2022-07-04T08:13:37;20.70;99.90
7576;DHT22;3829;50.798;4.358;2022-07-04T08:16:04;20.60;99.90
7576;DHT22;3829;50.798;4.358;2022-07-04T08:18:29;20.60;99.90
7576;DHT22;3829;50.798;4.358;2022-07-04T08:20:55;20.70;99.90
7576;DHT22;3829;50.798;4.358;2022-07-04T08:23:21;20.80;99.90
7576;DHT22;3829;50.798;4.358;2022-07-04T08:25:46;21.00;99.90
7576;DHT22;3829;50.798;4.358;2022-07-04T08:28:12;21.10;99.90
7576;DHT22;3829;50.798;4.358;2022-07-04T08:30:38;21.30;99.90
7576;DHT22;3829;50.798;4.358;2022-07-04T08:33:03;21.30;99.90
7576;DHT22;3829;50.798;4.358;2022-07-04T08:35:29;21.30;99.90
7576;DHT22;3829;50.798;4.358;2022-07-04T08:37:55;21.30;99.90
7576;DHT22;3829;50.798;4.358;2022-07-04T08:40:25;21.40;99.90
7576;DHT22;3829;50.798;4.358;2022-07-04T08:42:52;21.50;99.90
7576;DHT22;3829;50.798;4.358;2022-07-04T08:45:26;21.50;99.90
7576;DHT22;3829;50.798;4.358;2022-07-04T08:48:03;21.40;99.90
7576;DHT22;3829;50.798;4.358;2022-07-04T08:50:31;21.40;99.90
7576;DHT22;3829;50.798;4.358;2022-07-04T08:53:11;21.40;99.90
7576;DHT22;3829;50.798;4.358;2022-07-04T08:55:39;21.40;99.90
7576;DHT22;3829;50.798;4.358;2022-07-04T08:58:24;21.20;99.90
7576;DHT22;3829;50.798;4.358;2022-07-04T09:01:02;21.20;99.90
7576;DHT22;3829;50.798;4.358;2022-07-04T09:03:29;21.40;99.90
7576;DHT22;3829;50.798;4.358;2022-07-04T09:05:55;21.50;99.90
7576;DHT22;3829;50.798;4.358;2022-07-04T09:08:22;21.40;99.90
7576;DHT22;3829;50.798;4.358;2022-07-04T09:10:49;21.50;99.90
7576;DHT22;3829;50.798;4.358;2022-07-04T09:13:15;21.50;99.90
7576;DHT22;3829;50.798;4.358;2022-07-04T09:15:45;21.50;99.90
7576;DHT22;3829;50.798;4.358;2022-07-04T09:18:23;21.40;99.90
7576;DHT22;3829;50.798;4.358;2022-07-04T09:20:50;21.80;99.90
7576;DHT22;3829;50.798;4.358;2022-07-04T09:23:18;22.00;99.90
7576;DHT22;3829;50.798;4.358;2022-07-04T09:25:44;22.30;99.90
7576;DHT22;3829;50.798;4.358;2022-07-04T09:28:09;22.30;99.90
7576;DHT22;3829;50.798;4.358;2022-07-04T09:30:46;22.40;99.90
7576;DHT22;3829;50.798;4.358;2022-07-04T09:33:13;22.30;99.90
7576;DHT22;3829;50.798;4.358;2022-07-04T09:35:42;22.30;99.90
7576;DHT22;3829;50.798;4.358;2022-07-04T09:38:11;22.00;99.90
7576;DHT22;3829;50.798;4.358;2022-07-04T09:40:38;21.90;99.90
7576;DHT22;3829;50.798;4.358;2022-07-04T09:43:23;22.10;99.90
7576;DHT22;3829;50.798;4.358;2022-07-04T09:45:59;22.00;99.90
7576;DHT22;3829;50.798;4.358;2022-07-04T09:48:48;22.10;99.90
7576;DHT22;3829;50.798;4.358;2022-07-04T09:51:14;22.30;99.90
7576;DHT22;3829;50.798;4.358;2022-07-04T09:53:40;22.30;99.90
7576;DHT22;3829;50.798;4.358;2022-07-04T09:56:05;22.20;99.90
7576;DHT22;3829;50.798;4.358;2022-07-04T09:58:31;22.20;99.90
7576;DHT22;3829;50.798;4.358;2022-07-04T10:00:59;22.30;99.90
7576;DHT22;3829;50.798;4.358;2022-07-04T10:03:30;22.20;99.90
7576;DHT22;3829;50.798;4.358;2022-07-04T10:06:09;22.10;99.90
7576;DHT22;3829;50.798;4.358;2022-07-04T10:08:36;22.30;99.90
7576;DHT22;3829;50.798;4.358;2022-07-04T10:11:04;22.40;99.90
7576;DHT22;3829;50.798;4.358;2022-07-04T10:13:30;22.60;99.90
7576;DHT22;3829;50.798;4.358;2022-07-04T10:15:55;22.90;99.90
7576;DHT22;3829;50.798;4.358;2022-07-04T10:18:22;23.10;99.90
7576;DHT22;3829;50.798;4.358;2022-07-04T10:20:49;23.10;99.90
7576;DHT22;3829;50.798;4.358;2022-07-04T10:23:16;23.00;99.90
7576;DHT22;3829;50.798;4.358;2022-07-04T10:25:48;22.90;99.90
7576;DHT22;3829;50.798;4.358;2022-07-04T10:28:15;23.00;99.90
7576;DHT22;3829;50.798;4.358;2022-07-04T10:30:42;23.20;99.90
7576;DHT22;3829;50.798;4.358;2022-07-04T10:33:10;23.20;99.90
7576;DHT22;3829;50.798;4.358;2022-07-04T10:35:59;23.30;99.90
7576;DHT22;3829;50.798;4.358;2022-07-04T10:38:33;23.30;99.90
7576;DHT22;3829;50.798;4.358;2022-07-04T10:41:07;23.40;99.90
7576;DHT22;3829;50.798;4.358;2022-07-04T10:51:35;24.10;99.90
7576;DHT22;3829;50.798;4.358;2022-07-04T10:54:48;23.90;99.90
7576;DHT22;3829;50.798;4.358;2022-07-04T10:56:55;23.50;99.90
7576;DHT22;3829;50.798;4.358;2022-07-04T10:59:27;23.80;99.90
7576;DHT22;3829;50.798;4.358;2022-07-04T11:04:53;23.70;99.90
7576;DHT22;3829;50.798;4.358;2022-07-04T11:13:02;23.50;99.90
7576;DHT22;3829;50.798;4.358;2022-07-04T11:18:02;24.10;99.90
7576;DHT22;3829;50.798;4.358;2022-07-04T11:20:31;24.00;99.90
7576;DHT22;3829;50.798;4.358;2022-07-04T11:23:07;24.40;99.90
7576;DHT22;3829;50.798;4.358;2022-07-04T11:25:33;24.70;99.90
7576;DHT22;3829;50.798;4.358;2022-07-04T11:28:19;24.80;99.90
7576;DHT22;3829;50.798;4.358;2022-07-04T11:30:52;24.50;99.90
7576;DHT22;3829;50.798;4.358;2022-07-04T11:33:23;24.60;99.90
7576;DHT22;3829;50.798;4.358;2022-07-04T11:36:16;24.60;99.90
7576;DHT22;3829;50.798;4.358;2022-07-04T11:39:03;24.30;99.90
7576;DHT22;3829;50.798;4.358;2022-07-04T11:44:19;23.70;99.90
7576;DHT22;3829;50.798;4.358;2022-07-04T11:47:06;23.50;99.90
7576;DHT22;3829;50.798;4.358;2022-07-04T11:49:32;23.70;99.90
7576;DHT22;3829;50.798;4.358;2022-07-04T11:51:58;23.80;99.90
7576;DHT22;3829;50.798;4.358;2022-07-04T11:54:23;23.80;99.90
7576;DHT22;3829;50.798;4.358;2022-07-04T11:56:49;23.80;99.90
7576;DHT22;3829;50.798;4.358;2022-07-04T11:59:16;23.90;99.90
7576;DHT22;3829;50.798;4.358;2022-07-04T12:01:43;23.70;99.90
7576;DHT22;3829;50.798;4.358;2022-07-04T12:04:19;23.30;99.90
7576;DHT22;3829;50.798;4.358;2022-07-04T12:06:47;23.30;99.90
7576;DHT22;3829;50.798;4.358;2022-07-04T12:09:14;23.60;99.90
7576;DHT22;3829;50.798;4.358;2022-07-04T12:12:00;23.90;99.90
7576;DHT22;3829;50.798;4.358;2022-07-04T12:14:27;23.90;99.90
7576;DHT22;3829;50.798;4.358;2022-07-04T12:17:10;24.10;99.90
7576;DHT22;3829;50.798;4.358;2022-07-04T12:19:35;24.10;99.90
7576;DHT22;3829;50.798;4.358;2022-07-04T12:22:01;24.20;99.90
7576;DHT22;3829;50.798;4.358;2022-07-04T12:24:27;24.30;99.90
7576;DHT22;3829;50.798;4.358;2022-07-04T12:26:53;24.40;99.90
7576;DHT22;3829;50.798;4.358;2022-07-04T12:29:23;24.50;99.90
7576;DHT22;3829;50.798;4.358;2022-07-04T12:31:51;24.70;99.90
7576;DHT22;3829;50.798;4.358;2022-07-04T12:34:18;24.80;99.90
7576;DHT22;3829;50.798;4.358;2022-07-04T12:36:55;25.00;99.90
7576;DHT22;3829;50.798;4.358;2022-07-04T12:39:35;24.80;99.90
7576;DHT22;3829;50.798;4.358;2022-07-04T12:42:14;25.20;99.90
7576;DHT22;3829;50.798;4.358;2022-07-04T12:44:41;25.50;99.90
7576;DHT22;3829;50.798;4.358;2022-07-04T12:47:09;25.40;99.90
7576;DHT22;3829;50.798;4.358;2022-07-04T12:49:35;25.20;99.90
7576;DHT22;3829;50.798;4.358;2022-07-04T12:52:09;25.00;99.90
7576;DHT22;3829;50.798;4.358;2022-07-04T12:54:35;24.80;99.90
7576;DHT22;3829;50.798;4.358;2022-07-04T12:57:09;25.00;99.90
7576;DHT22;3829;50.798;4.358;2022-07-04T12:59:35;25.30;99.90
7576;DHT22;3829;50.798;4.358;2022-07-04T13:02:02;25.50;99.90
7576;DHT22;3829;50.798;4.358;2022-07-04T13:04:27;25.50;99.90
7576;DHT22;3829;50.798;4.358;2022-07-04T13:06:53;26.00;99.90
7576;DHT22;3829;50.798;4.358;2022-07-04T13:09:19;25.50;99.90
7576;DHT22;3829;50.798;4.358;2022-07-04T13:11:45;25.30;99.90
7576;DHT22;3829;50.798;4.358;2022-07-04T13:14:29;26.00;99.90
7576;DHT22;3829;50.798;4.358;2022-07-04T13:16:55;27.30;99.90
7576;DHT22;3829;50.798;4.358;2022-07-04T13:19:20;28.20;99.90
7576;DHT22;3829;50.798;4.358;2022-07-04T13:21:46;27.90;99.90
7576;DHT22;3829;50.798;4.358;2022-07-04T13:24:13;27.80;99.90
7576;DHT22;3829;50.798;4.358;2022-07-04T13:26:39;27.10;99.90
7576;DHT22;3829;50.798;4.358;2022-07-04T13:29:05;27.00;99.90
7576;DHT22;3829;50.798;4.358;2022-07-04T13:31:31;27.30;99.90
7576;DHT22;3829;50.798;4.358;2022-07-04T13:33:57;28.30;99.90
7576;DHT22;3829;50.798;4.358;2022-07-04T13:36:23;29.90;99.40
7576;DHT22;3829;50.798;4.358;2022-07-04T13:38:49;30.10;98.00
7576;DHT22;3829;50.798;4.358;2022-07-04T13:41:14;30.10;97.70
7576;DHT22;3829;50.798;4.358;2022-07-04T13:43:40;30.00;97.60
7576;DHT22;3829;50.798;4.358;2022-07-04T13:46:06;29.50;97.10
7576;DHT22;3829;50.798;4.358;2022-07-04T13:48:32;30.30;96.80
7576;DHT22;3829;50.798;4.358;2022-07-04T13:50:58;30.70;96.30
7576;DHT22;3829;50.798;4.358;2022-07-04T13:53:23;30.50;95.90
7576;DHT22;3829;50.798;4.358;2022-07-04T13:55:49;30.90;95.80
7576;DHT22;3829;50.798;4.358;2022-07-04T13:58:15;29.90;95.30
7576;DHT22;3829;50.798;4.358;2022-07-04T14:00:40;29.90;95.90
7576;DHT22;3829;50.798;4.358;2022-07-04T14:03:13;30.90;95.80
7576;DHT22;3829;50.798;4.358;2022-07-04T14:05:42;31.10;94.80
7576;DHT22;3829;50.798;4.358;2022-07-04T14:08:08;30.60;94.00
7576;DHT22;3829;50.798;4.358;2022-07-04T14:10:33;30.50;94.30
7576;DHT22;3829;50.798;4.358;2022-07-04T14:12:59;30.00;95.00
7576;DHT22;3829;50.798;4.358;2022-07-04T14:15:24;29.80;95.40
7576;DHT22;3829;50.798;4.358;2022-07-04T14:17:50;30.10;95.20
7576;DHT22;3829;50.798;4.358;2022-07-04T14:20:16;31.00;95.00
7576;DHT22;3829;50.798;4.358;2022-07-04T14:22:43;31.50;93.20
7576;DHT22;3829;50.798;4.358;2022-07-04T14:25:09;31.90;92.90
7576;DHT22;3829;50.798;4.358;2022-07-04T14:27:35;31.60;93.80
7576;DHT22;3829;50.798;4.358;2022-07-04T14:30:01;32.00;93.50
7576;DHT22;3829;50.798;4.358;2022-07-04T14:32:27;32.50;93.30
7576;DHT22;3829;50.798;4.358;2022-07-04T14:34:53;33.40;92.60
7576;DHT22;3829;50.798;4.358;2022-07-04T14:37:19;33.70;92.40
7576;DHT22;3829;50.798;4.358;2022-07-04T14:39:44;34.80;91.50
7576;DHT22;3829;50.798;4.358;2022-07-04T14:42:10;33.70;90.70
7576;DHT22;3829;50.798;4.358;2022-07-04T14:44:36;32.70;91.70
7576;DHT22;3829;50.798;4.358;2022-07-04T14:47:04;31.30;92.30
7576;DHT22;3829;50.798;4.358;2022-07-04T14:49:30;31.90;92.00
7576;DHT22;3829;50.798;4.358;2022-07-04T14:51:55;31.80;92.00
7576;DHT22;3829;50.798;4.358;2022-07-04T14:54:22;31.40;91.50
7576;DHT22;3829;50.798;4.358;2022-07-04T14:56:48;32.20;91.40
7576;DHT22;3829;50.798;4.358;2022-07-04T14:59:14;33.40;91.70
7576;DHT22;3829;50.798;4.358;2022-07-04T15:01:40;33.10;90.70
7576;DHT22;3829;50.798;4.358;2022-07-04T15:04:05;33.50;91.70
7576;DHT22;3829;50.798;4.358;2022-07-04T15:06:31;33.80;91.10
7576;DHT22;3829;50.798;4.358;2022-07-04T15:08:56;33.50;90.70
7576;DHT22;3829;50.798;4.358;2022-07-04T15:11:22;33.80;89.50
7576;DHT22;3829;50.798;4.358;2022-07-04T15:13:48;33.10;89.80
7576;DHT22;3829;50.798;4.358;2022-07-04T15:16:15;32.10;91.40
7576;DHT22;3829;50.798;4.358;2022-07-04T15:18:41;31.90;90.20
7576;DHT22;3829;50.798;4.358;2022-07-04T15:21:07;31.20;91.30
7576;DHT22;3829;50.798;4.358;2022-07-04T15:23:51;31.60;90.10
7576;DHT22;3829;50.798;4.358;2022-07-04T15:26:35;32.30;90.10
7576;DHT22;3829;50.798;4.358;2022-07-04T15:29:00;32.90;89.10
7576;DHT22;3829;50.798;4.358;2022-07-04T15:31:26;32.80;88.20
7576;DHT22;3829;50.798;4.358;2022-07-04T15:33:52;33.00;88.60
7576;DHT22;3829;50.798;4.358;2022-07-04T15:36:17;33.80;89.40
7576;DHT22;3829;50.798;4.358;2022-07-04T15:38:43;33.80;89.50
7576;DHT22;3829;50.798;4.358;2022-07-04T15:41:09;34.60;89.90
7576;DHT22;3829;50.798;4.358;2022-07-04T15:43:36;35.40;89.10
7576;DHT22;3829;50.798;4.358;2022-07-04T15:46:01;34.00;89.40
7576;DHT22;3829;50.798;4.358;2022-07-04T15:48:27;34.50;88.40
7576;DHT22;3829;50.798;4.358;2022-07-04T15:50:53;35.30;87.70
7576;DHT22;3829;50.798;4.358;2022-07-04T15:53:19;35.20;86.10
7576;DHT22;3829;50.798;4.358;2022-07-04T15:55:45;35.90;86.20
7576;DHT22;3829;50.798;4.358;2022-07-04T15:58:10;36.10;85.60
7576;DHT22;3829;50.798;4.358;2022-07-04T16:00:36;36.20;85.30
7576;DHT22;3829;50.798;4.358;2022-07-04T16:03:02;34.20;86.10
7576;DHT22;3829;50.798;4.358;2022-07-04T16:05:28;33.40;88.60
7576;DHT22;3829;50.798;4.358;2022-07-04T16:07:53;33.90;86.60
7576;DHT22;3829;50.798;4.358;2022-07-04T16:10:19;34.10;86.40
7576;DHT22;3829;50.798;4.358;2022-07-04T16:12:45;34.10;86.60
7576;DHT22;3829;50.798;4.358;2022-07-04T16:15:10;34.40;86.20
7576;DHT22;3829;50.798;4.358;2022-07-04T16:17:36;33.70;86.30
7576;DHT22;3829;50.798;4.358;2022-07-04T16:20:04;33.20;88.00
7576;DHT22;3829;50.798;4.358;2022-07-04T16:22:30;33.30;87.50
7576;DHT22;3829;50.798;4.358;2022-07-04T16:24:56;33.70;88.30